createdAt,value
2022-10-23T00:01:34.023Z,14.60
2022-10-23T00:04:22.870Z,18.00
2022-10-23T00:06:51.032Z,18.05
2022-10-23T00:09:22.511Z,16.55
2022-10-23T00:11:51.793Z,14.73
2022-10-23T00:14:22.875Z,19.85
2022-10-23T00:16:50.444Z,14.15
2022-10-23T00:19:17.988Z,18.13
2022-10-23T00:21:45.679Z,16.95
2022-10-23T00:24:13.335Z,21.50
2022-10-23T00:26:41.320Z,16.25
2022-10-23T00:29:10.442Z,13.63
2022-10-23T00:31:38.900Z,18.00
2022-10-23T00:34:08.456Z,16.77
2022-10-23T00:36:36.496Z,14.23
2022-10-23T00:39:05.130Z,20.52
2022-10-23T00:41:32.762Z,26.58
2022-10-23T00:44:18.417Z,22.35
2022-10-23T00:46:46.280Z,16.55
2022-10-23T00:49:14.588Z,20.05
2022-10-23T00:51:46.690Z,16.67
2022-10-23T00:54:24.980Z,23.15
2022-10-23T00:56:59.341Z,28.33
2022-10-23T00:59:27.782Z,14.55
2022-10-23T01:01:55.559Z,17.92
2022-10-23T01:04:23.935Z,14.25
2022-10-23T01:06:54.309Z,17.63
2022-10-23T01:09:47.060Z,17.30
2022-10-23T01:12:31.977Z,16.25
2022-10-23T01:15:17.725Z,17.20
2022-10-23T01:18:10.603Z,17.25
2022-10-23T01:21:11.212Z,22.58
2022-10-23T01:24:06.726Z,12.88
2022-10-23T01:26:45.707Z,18.00
2022-10-23T01:29:39.562Z,16.02
2022-10-23T01:32:06.956Z,16.00
2022-10-23T01:34:41.648Z,19.80
2022-10-23T01:37:13.717Z,12.88
2022-10-23T01:39:47.977Z,16.20
2022-10-23T01:42:33.129Z,17.95
2022-10-23T01:45:26.799Z,15.07
2022-10-23T01:47:56.584Z,18.02
2022-10-23T01:50:25.401Z,12.98
2022-10-23T01:53:00.173Z,18.33
2022-10-23T01:55:27.697Z,17.65
2022-10-23T01:57:57.757Z,17.55
2022-10-23T02:00:36.064Z,20.05
2022-10-23T02:03:04.603Z,11.98
2022-10-23T02:05:34.443Z,16.95
2022-10-23T02:08:03.659Z,17.90
2022-10-23T02:11:11.417Z,17.52
2022-10-23T02:13:59.303Z,17.15
2022-10-23T02:16:37.160Z,18.33
2022-10-23T02:19:31.217Z,14.93
2022-10-23T02:22:29.923Z,19.08
2022-10-23T02:25:13.947Z,16.70
2022-10-23T02:27:47.072Z,18.98
2022-10-23T02:30:18.001Z,17.95
2022-10-23T02:32:54.776Z,18.55
2022-10-23T02:35:24.453Z,19.48
2022-10-23T02:38:01.392Z,17.05
2022-10-23T02:40:40.612Z,17.30
2022-10-23T02:43:30.154Z,18.85
2022-10-23T02:46:15.678Z,13.13
2022-10-23T02:48:48.916Z,16.88
2022-10-23T02:51:26.198Z,16.70
2022-10-23T02:54:08.665Z,22.60
2022-10-23T02:57:01.938Z,19.73
2022-10-23T02:59:49.232Z,17.20
2022-10-23T03:02:35.959Z,12.52
2022-10-23T03:05:06.152Z,13.00
2022-10-23T03:07:34.260Z,23.97
2022-10-23T03:10:07.854Z,14.35
2022-10-23T03:12:35.692Z,15.85
2022-10-23T03:15:06.572Z,13.93
2022-10-23T03:17:34.222Z,12.60
2022-10-23T03:20:01.714Z,13.32
2022-10-23T03:22:29.200Z,17.63
2022-10-23T03:24:56.960Z,11.68
2022-10-23T03:27:24.388Z,10.55
2022-10-23T03:29:51.836Z,15.85
2022-10-23T03:32:19.934Z,12.77
2022-10-23T03:34:47.332Z,13.88
2022-10-23T03:37:14.860Z,14.25
2022-10-23T03:39:42.419Z,16.08
2022-10-23T03:42:09.770Z,11.65
2022-10-23T03:44:37.317Z,9.98
2022-10-23T03:47:05.505Z,8.70
2022-10-23T03:49:32.880Z,11.35
2022-10-23T03:52:05.728Z,19.88
2022-10-23T03:54:33.863Z,10.52
2022-10-23T03:57:01.369Z,14.13
2022-10-23T03:59:29.113Z,14.15
2022-10-23T04:01:56.853Z,11.35
2022-10-23T04:04:25.579Z,11.13
2022-10-23T04:06:53.016Z,7.90
2022-10-23T04:09:21.352Z,13.98
2022-10-23T04:11:48.726Z,13.10
2022-10-23T04:14:16.774Z,12.85
2022-10-23T04:16:44.159Z,13.43
2022-10-23T04:19:11.650Z,14.30
2022-10-23T04:21:39.129Z,10.05
2022-10-23T04:24:06.847Z,14.80
2022-10-23T04:26:34.353Z,13.00
2022-10-23T04:29:01.784Z,9.18
2022-10-23T04:31:30.618Z,12.02
2022-10-23T04:33:58.036Z,16.67
2022-10-23T04:36:30.740Z,19.77
2022-10-23T04:39:04.060Z,13.82
2022-10-23T04:41:32.804Z,11.32
2022-10-23T04:44:01.188Z,10.85
2022-10-23T04:46:28.589Z,10.15
2022-10-23T04:48:55.994Z,11.77
2022-10-23T04:51:41.962Z,7.47
2022-10-23T04:54:29.642Z,8.95
2022-10-23T04:57:18.327Z,8.15
2022-10-23T04:59:55.653Z,11.05
2022-10-23T05:02:24.385Z,11.68
2022-10-23T05:04:53.038Z,7.15
2022-10-23T05:07:52.405Z,6.22
2022-10-23T05:10:37.070Z,7.82
2022-10-23T05:13:13.088Z,9.73
2022-10-23T05:15:41.161Z,8.82
2022-10-23T05:18:17.365Z,7.13
2022-10-23T05:20:46.119Z,4.10
2022-10-23T05:23:16.208Z,7.65
2022-10-23T05:25:52.999Z,7.72
2022-10-23T05:28:20.600Z,9.93
2022-10-23T05:30:48.992Z,7.55
2022-10-23T05:33:18.065Z,4.50
2022-10-23T05:35:45.808Z,6.85
2022-10-23T05:38:16.350Z,8.40
2022-10-23T05:40:44.432Z,8.63
2022-10-23T05:43:17.377Z,8.45
2022-10-23T05:46:00.079Z,5.63
2022-10-23T05:48:35.416Z,10.35
2022-10-23T05:51:10.708Z,11.05
2022-10-23T05:53:46.323Z,6.68
2022-10-23T05:56:31.873Z,11.25
2022-10-23T05:59:11.225Z,7.53
2022-10-23T06:01:49.798Z,8.07
2022-10-23T06:04:26.195Z,9.30
2022-10-23T06:07:31.193Z,9.18
2022-10-23T06:10:05.759Z,6.63
2022-10-23T06:12:35.942Z,7.35
2022-10-23T06:15:04.328Z,7.32
2022-10-23T06:17:51.679Z,5.10
2022-10-23T06:20:19.257Z,12.23
2022-10-23T06:22:57.602Z,10.40
2022-10-23T06:25:51.531Z,11.98
2022-10-23T06:28:20.622Z,10.98
2022-10-23T06:30:48.445Z,10.15
2022-10-23T06:33:15.917Z,7.05
2022-10-23T06:35:44.078Z,9.70
2022-10-23T06:38:13.176Z,9.80
2022-10-23T06:40:53.034Z,7.07
2022-10-23T06:43:26.306Z,9.02
2022-10-23T06:46:14.065Z,17.55
2022-10-23T06:49:10.889Z,11.75
2022-10-23T06:51:47.019Z,9.15
2022-10-23T06:54:15.553Z,11.93
2022-10-23T06:56:48.893Z,10.70
2022-10-23T06:59:19.878Z,12.23
2022-10-23T07:01:50.474Z,12.82
2022-10-23T07:04:18.306Z,12.45
2022-10-23T07:06:46.079Z,11.77
2022-10-23T07:09:13.711Z,6.40
2022-10-23T07:11:52.958Z,16.27
2022-10-23T07:14:25.854Z,15.18
2022-10-23T07:16:53.445Z,15.20
2022-10-23T07:19:21.604Z,14.18
2022-10-23T07:22:00.983Z,8.98
2022-10-23T07:24:40.177Z,11.75
2022-10-23T07:27:42.997Z,12.27
2022-10-23T07:30:11.696Z,13.95
2022-10-23T07:32:45.710Z,12.07
2022-10-23T07:35:34.274Z,8.82
2022-10-23T07:38:08.310Z,11.05
2022-10-23T07:40:40.252Z,10.02
2022-10-23T07:43:10.239Z,12.90
2022-10-23T07:45:37.842Z,8.15
2022-10-23T07:48:17.200Z,18.77
2022-10-23T07:51:08.199Z,17.33
2022-10-23T07:53:39.715Z,13.60
2022-10-23T07:56:20.425Z,13.20
2022-10-23T07:59:14.618Z,12.55
2022-10-23T08:01:49.575Z,12.27
2022-10-23T08:04:19.932Z,12.27
2022-10-23T08:06:56.070Z,15.00
2022-10-23T08:09:23.405Z,16.55
2022-10-23T08:11:50.854Z,14.63
2022-10-23T08:14:20.178Z,9.13
2022-10-23T08:16:48.708Z,10.55
2022-10-23T08:19:39.329Z,11.15
2022-10-23T08:22:06.942Z,14.07
2022-10-23T08:24:34.955Z,20.83
2022-10-23T08:27:05.518Z,9.40
2022-10-23T08:29:43.777Z,10.07
2022-10-23T08:32:11.774Z,16.23
2022-10-23T08:34:49.057Z,14.73
2022-10-23T08:37:17.217Z,12.73
2022-10-23T08:39:44.973Z,15.10
2022-10-23T08:42:24.427Z,17.55
2022-10-23T08:45:12.931Z,12.20
2022-10-23T08:47:50.102Z,16.17
2022-10-23T08:51:00.774Z,12.88
2022-10-23T08:53:41.113Z,20.15
2022-10-23T08:56:22.809Z,13.73
2022-10-23T08:59:05.375Z,17.65
2022-10-23T09:01:43.685Z,11.45
2022-10-23T09:04:13.650Z,13.10
2022-10-23T09:07:05.726Z,23.08
2022-10-23T09:09:44.680Z,13.82
2022-10-23T09:12:23.589Z,14.73
2022-10-23T09:15:09.009Z,14.02
2022-10-23T09:17:42.369Z,14.35
2022-10-23T09:20:19.738Z,22.05
2022-10-23T09:22:49.814Z,19.38
2022-10-23T09:25:29.429Z,14.90
2022-10-23T09:28:01.598Z,18.45
2022-10-23T09:30:40.669Z,12.07
2022-10-23T09:33:18.461Z,10.73
2022-10-23T09:35:54.813Z,11.80
2022-10-23T09:38:40.016Z,10.55
2022-10-23T09:41:30.638Z,10.13
2022-10-23T09:44:20.144Z,13.13
2022-10-23T09:49:26.095Z,8.35
2022-10-23T09:52:10.241Z,12.60
2022-10-23T09:54:59.598Z,9.23
2022-10-23T09:57:32.265Z,9.02
2022-10-23T10:00:15.727Z,8.48
2022-10-23T10:02:56.738Z,7.00
2022-10-23T10:05:45.695Z,8.93
2022-10-23T10:08:36.422Z,8.38
2022-10-23T10:11:30.633Z,11.27
2022-10-23T10:14:22.641Z,11.10
2022-10-23T10:17:02.602Z,7.95
2022-10-23T10:20:06.742Z,7.43
2022-10-23T10:22:40.609Z,7.93
2022-10-23T10:25:24.202Z,11.35
2022-10-23T10:28:00.812Z,14.95
2022-10-23T10:30:46.447Z,15.38
2022-10-23T10:33:35.641Z,17.30
2022-10-23T10:36:37.268Z,13.38
2022-10-23T10:39:20.539Z,10.30
2022-10-23T10:42:06.947Z,10.05
2022-10-23T10:44:43.600Z,14.10
2022-10-23T10:47:27.315Z,14.85
2022-10-23T10:49:58.326Z,7.75
2022-10-23T10:52:58.148Z,7.15
2022-10-23T10:55:35.169Z,9.73
2022-10-23T10:58:35.772Z,9.02
2022-10-23T11:01:13.480Z,9.60
2022-10-23T11:03:52.280Z,13.35
2022-10-23T11:06:23.298Z,9.65
2022-10-23T11:08:57.921Z,8.88
2022-10-23T11:11:42.757Z,12.52
2022-10-23T11:14:23.347Z,11.25
2022-10-23T11:17:20.026Z,10.35
2022-10-23T11:19:49.659Z,9.75
2022-10-23T11:22:37.433Z,14.45
2022-10-23T11:25:32.849Z,15.60
2022-10-23T11:28:13.517Z,14.27
2022-10-23T11:31:02.737Z,10.45
2022-10-23T11:34:06.657Z,10.32
2022-10-23T11:36:52.949Z,17.45
2022-10-23T11:39:22.071Z,12.68
2022-10-23T11:41:55.721Z,14.63
2022-10-23T11:44:28.047Z,16.75
2022-10-23T11:47:04.455Z,14.98
2022-10-23T11:49:32.230Z,15.23
2022-10-23T11:52:01.628Z,15.57
2022-10-23T11:54:29.652Z,16.05
2022-10-23T11:57:15.765Z,13.75
2022-10-23T11:59:48.719Z,16.73
2022-10-23T12:02:27.441Z,17.50
2022-10-23T12:04:56.175Z,17.17
2022-10-23T12:07:36.207Z,17.10
2022-10-23T12:10:36.553Z,16.27
2022-10-23T12:13:26.201Z,12.73
2022-10-23T12:15:58.466Z,15.73
2022-10-23T12:18:28.678Z,10.27
2022-10-23T12:21:00.677Z,12.05
2022-10-23T12:24:07.210Z,16.63
2022-10-23T12:27:02.041Z,19.17
2022-10-23T12:29:56.963Z,16.75
2022-10-23T12:32:30.271Z,17.63
2022-10-23T12:35:18.213Z,10.68
2022-10-23T12:38:14.966Z,12.18
2022-10-23T12:40:50.911Z,13.13
2022-10-23T12:43:27.620Z,14.13
2022-10-23T12:45:56.467Z,11.35
2022-10-23T12:48:24.786Z,13.65
2022-10-23T12:50:55.556Z,12.75
2022-10-23T12:58:35.143Z,11.70
2022-10-23T13:01:07.758Z,16.17
2022-10-23T13:03:38.674Z,6.13
2022-10-23T13:06:20.221Z,14.55
2022-10-23T13:08:48.885Z,10.13
2022-10-23T13:11:35.377Z,7.25
2022-10-23T13:14:30.119Z,16.35
2022-10-23T13:17:10.752Z,18.10
2022-10-23T13:19:38.318Z,11.60
2022-10-23T13:22:20.059Z,10.43
2022-10-23T13:24:49.082Z,11.40
2022-10-23T13:27:34.209Z,9.05
2022-10-23T13:30:02.577Z,10.93
2022-10-23T13:32:31.507Z,11.68
2022-10-23T13:35:16.957Z,11.13
2022-10-23T13:37:48.537Z,12.73
2022-10-23T13:40:27.566Z,13.48
2022-10-23T13:42:57.202Z,9.90
2022-10-23T13:45:26.348Z,15.60
2022-10-23T13:47:54.430Z,9.45
2022-10-23T13:50:21.955Z,10.77
2022-10-23T13:52:49.373Z,15.52
2022-10-23T13:55:24.722Z,9.88
2022-10-23T13:57:52.232Z,15.25
2022-10-23T14:00:19.692Z,15.05
2022-10-23T14:02:47.086Z,20.25
2022-10-23T14:05:14.795Z,11.52
2022-10-23T14:07:42.598Z,14.35
2022-10-23T14:10:10.721Z,12.40
2022-10-23T14:12:42.667Z,15.25
2022-10-23T14:15:11.273Z,14.23
2022-10-23T14:17:39.713Z,8.93
2022-10-23T14:20:08.315Z,12.32
2022-10-23T14:22:36.355Z,19.33
2022-10-23T14:25:05.032Z,19.02
2022-10-23T14:27:32.500Z,12.90
2022-10-23T14:29:59.886Z,14.18
2022-10-23T14:32:27.264Z,21.15
2022-10-23T14:34:54.867Z,13.57
2022-10-23T14:37:22.402Z,10.23
2022-10-23T14:39:50.404Z,12.90
2022-10-23T14:42:18.387Z,13.63
2022-10-23T14:44:45.810Z,15.20
2022-10-23T14:47:13.240Z,10.77
2022-10-23T14:49:41.163Z,12.48
2022-10-23T14:52:09.044Z,13.13
2022-10-23T14:54:36.518Z,12.95
2022-10-23T14:57:04.246Z,13.15
2022-10-23T14:59:31.803Z,11.57
2022-10-23T15:01:59.468Z,9.02
2022-10-23T15:04:26.970Z,15.02
2022-10-23T15:06:54.332Z,14.57
2022-10-23T15:09:21.793Z,13.65
2022-10-23T15:11:49.356Z,16.55
2022-10-23T15:14:20.082Z,16.30
2022-10-23T15:16:48.193Z,15.55
2022-10-23T15:19:18.507Z,8.07
2022-10-23T15:21:49.749Z,12.90
2022-10-23T15:24:25.164Z,13.32
2022-10-23T15:26:52.889Z,16.95
2022-10-23T15:29:20.520Z,15.93
2022-10-23T15:32:09.455Z,13.40
2022-10-23T15:34:37.623Z,11.27
2022-10-23T15:37:05.427Z,15.18
2022-10-23T15:39:33.893Z,12.23
2022-10-23T15:42:03.719Z,12.57
2022-10-23T15:44:32.562Z,12.18
2022-10-23T15:47:00.730Z,26.65
2022-10-23T15:49:32.588Z,17.83
2022-10-23T15:52:00.183Z,19.25
2022-10-23T15:54:30.569Z,17.38
2022-10-23T15:57:01.294Z,27.15
2022-10-23T15:59:30.530Z,22.85
2022-10-23T16:01:58.291Z,26.60
2022-10-23T16:04:25.847Z,17.65
2022-10-23T16:06:53.226Z,17.30
2022-10-23T16:09:21.197Z,16.27
2022-10-23T16:11:48.614Z,12.65
2022-10-23T16:14:17.415Z,4.68
2022-10-23T16:16:45.106Z,5.22
2022-10-23T16:19:13.256Z,5.78
2022-10-23T16:21:41.975Z,7.15
2022-10-23T16:24:10.156Z,4.32
2022-10-23T16:26:39.520Z,5.13
2022-10-23T16:29:08.653Z,5.63
2022-10-23T16:31:36.157Z,5.65
2022-10-23T16:34:05.390Z,5.50
2022-10-23T16:36:33.889Z,3.15
2022-10-23T16:39:13.814Z,2.97
2022-10-23T16:41:59.742Z,4.25
2022-10-23T16:44:37.614Z,4.75
2022-10-23T16:47:06.493Z,4.07
2022-10-23T16:49:34.387Z,6.93
2022-10-23T16:52:01.752Z,14.50
2022-10-23T16:54:29.107Z,9.10
2022-10-23T16:56:56.518Z,20.38
2022-10-23T16:59:24.039Z,12.13
2022-10-23T17:01:51.525Z,17.13
2022-10-23T17:04:19.414Z,10.90
2022-10-23T17:06:46.946Z,9.32
2022-10-23T17:09:14.582Z,7.28
2022-10-23T17:11:45.430Z,5.82
2022-10-23T17:14:17.884Z,5.95
2022-10-23T17:16:51.188Z,13.65
2022-10-23T17:19:43.422Z,8.65
2022-10-23T17:22:10.779Z,6.57
2022-10-23T17:24:39.900Z,8.25
2022-10-23T17:27:07.776Z,10.85
2022-10-23T17:29:35.488Z,8.18
2022-10-23T17:32:03.791Z,9.75
2022-10-23T17:34:31.281Z,11.32
2022-10-23T17:36:58.647Z,9.95
2022-10-23T17:39:29.736Z,9.20
2022-10-23T17:41:57.921Z,20.92
2022-10-23T17:44:25.604Z,23.33
2022-10-23T17:46:54.108Z,31.20
2022-10-23T17:49:22.379Z,24.05
2022-10-23T17:51:52.772Z,23.65
2022-10-23T17:54:20.633Z,21.48
2022-10-23T17:56:48.037Z,15.70
2022-10-23T17:59:18.800Z,29.10
2022-10-23T18:01:48.174Z,26.38
2022-10-23T18:04:18.931Z,15.07
2022-10-23T18:06:49.164Z,21.92
2022-10-23T18:09:17.373Z,20.98
2022-10-23T18:11:48.740Z,21.90
2022-10-23T18:14:18.220Z,29.98
2022-10-23T18:16:46.361Z,26.50
2022-10-23T18:19:15.669Z,25.85
2022-10-23T18:21:43.057Z,22.10
2022-10-23T18:24:10.695Z,28.98
2022-10-23T18:26:39.909Z,23.98
2022-10-23T18:29:08.539Z,24.38
2022-10-23T18:31:37.455Z,26.52
2022-10-23T18:34:08.475Z,19.90
2022-10-23T18:36:38.094Z,26.80
2022-10-23T18:39:07.571Z,29.80
2022-10-23T18:41:38.880Z,31.63
2022-10-23T18:44:07.557Z,19.10
2022-10-23T18:46:35.697Z,21.13
2022-10-23T18:49:03.345Z,25.23
2022-10-23T18:51:33.334Z,21.48
2022-10-23T18:54:03.205Z,28.38
2022-10-23T18:56:35.642Z,19.45
2022-10-23T18:59:05.178Z,17.92
2022-10-23T19:01:33.608Z,15.40
2022-10-23T19:04:01.760Z,13.35
2022-10-23T19:06:30.372Z,21.65
2022-10-23T19:08:57.825Z,21.27
2022-10-23T19:11:26.589Z,23.75
2022-10-23T19:13:54.381Z,24.45
2022-10-23T19:16:29.080Z,15.90
2022-10-23T19:19:05.295Z,20.15
2022-10-23T19:21:36.935Z,37.13
2022-10-23T19:24:10.096Z,22.90
2022-10-23T19:26:39.826Z,21.30
2022-10-23T19:29:09.154Z,24.42
2022-10-23T19:31:37.228Z,25.75
2022-10-23T19:34:04.753Z,24.25
2022-10-23T19:36:32.329Z,26.30
2022-10-23T19:38:59.746Z,21.30
2022-10-23T19:41:27.193Z,23.17
2022-10-23T19:43:54.553Z,18.65
2022-10-23T19:46:22.058Z,25.30
2022-10-23T19:48:49.596Z,11.60
2022-10-23T19:51:17.058Z,16.25
2022-10-23T19:53:44.428Z,18.05
2022-10-23T19:56:12.721Z,22.98
2022-10-23T19:58:41.022Z,15.23
2022-10-23T20:01:17.146Z,22.38
2022-10-23T20:03:45.528Z,25.98
2022-10-23T20:06:15.729Z,21.08
2022-10-23T20:08:43.261Z,16.45
2022-10-23T20:11:21.614Z,21.75
2022-10-23T20:13:49.845Z,25.25
2022-10-23T20:16:23.401Z,23.00
2022-10-23T20:18:51.574Z,22.92
2022-10-23T20:21:19.384Z,19.67
2022-10-23T20:23:47.292Z,14.80
2022-10-23T20:26:17.248Z,16.75
2022-10-23T20:28:47.048Z,24.60
2022-10-23T20:31:16.936Z,16.70
2022-10-23T20:33:44.374Z,15.35
2022-10-23T20:36:27.201Z,17.63
2022-10-23T20:38:55.775Z,11.13
2022-10-23T20:41:25.001Z,17.92
2022-10-23T20:43:53.059Z,17.88
2022-10-23T20:46:20.387Z,21.38
2022-10-23T20:48:47.794Z,18.48
2022-10-23T20:51:19.020Z,15.95
2022-10-23T20:53:48.000Z,21.70
2022-10-23T20:56:18.655Z,16.33
2022-10-23T20:58:46.300Z,13.57
2022-10-23T21:01:16.653Z,20.35
2022-10-23T21:03:48.845Z,16.38
2022-10-23T21:06:17.173Z,19.05
2022-10-23T21:08:45.365Z,14.73
2022-10-23T21:11:14.966Z,25.92
2022-10-23T21:13:43.949Z,22.05
2022-10-23T21:16:15.817Z,15.77
2022-10-23T21:18:46.486Z,18.30
2022-10-23T21:21:19.074Z,17.13
2022-10-23T21:23:48.897Z,20.77
2022-10-23T21:26:18.217Z,16.65
2022-10-23T21:28:55.829Z,16.80
2022-10-23T21:31:28.630Z,17.25
2022-10-23T21:33:56.135Z,16.30
2022-10-23T21:36:24.486Z,26.27
2022-10-23T21:38:54.619Z,16.52
2022-10-23T21:41:27.879Z,17.15
2022-10-23T21:43:57.554Z,22.52
2022-10-23T21:46:25.959Z,23.38
2022-10-23T21:48:53.436Z,14.05
2022-10-23T21:51:29.218Z,19.55
2022-10-23T21:53:57.266Z,18.17
2022-10-23T21:56:40.151Z,21.27
2022-10-23T21:59:12.651Z,19.23
2022-10-23T22:01:43.158Z,24.63
2022-10-23T22:04:14.076Z,19.52
2022-10-23T22:06:42.906Z,18.33
2022-10-23T22:09:13.364Z,20.20
2022-10-23T22:11:41.237Z,27.95
2022-10-23T22:14:08.625Z,23.95
2022-10-23T22:16:36.304Z,25.15
2022-10-23T22:19:03.931Z,20.88
2022-10-23T22:21:31.924Z,20.27
2022-10-23T22:24:00.973Z,22.20
2022-10-23T22:26:32.071Z,29.17
2022-10-23T22:29:12.078Z,16.33
2022-10-23T22:31:44.034Z,23.67
2022-10-23T22:34:28.761Z,18.92
2022-10-23T22:37:05.675Z,19.27
2022-10-23T22:39:45.703Z,18.52
2022-10-23T22:42:13.230Z,17.42
2022-10-23T22:44:40.614Z,15.45
2022-10-23T22:47:08.198Z,21.02
2022-10-23T22:49:35.746Z,17.60
2022-10-23T22:52:03.177Z,22.25
2022-10-23T22:54:31.385Z,19.60
2022-10-23T22:56:59.014Z,24.98
2022-10-23T22:59:26.514Z,25.58
2022-10-23T23:01:54.151Z,20.67
2022-10-23T23:04:38.186Z,30.42
2022-10-23T23:07:11.125Z,21.08
2022-10-23T23:09:40.900Z,34.17
2022-10-23T23:12:10.086Z,24.05
2022-10-23T23:14:38.118Z,25.05
2022-10-23T23:17:06.845Z,26.55
2022-10-23T23:19:34.286Z,25.65
2022-10-23T23:22:01.969Z,28.35
2022-10-23T23:24:29.712Z,23.73
2022-10-23T23:26:57.163Z,18.00
2022-10-23T23:29:25.582Z,27.73
2022-10-23T23:31:53.312Z,20.33
2022-10-23T23:34:21.301Z,26.98
2022-10-23T23:36:48.796Z,27.00
2022-10-23T23:39:16.196Z,28.02
2022-10-23T23:41:43.565Z,31.05
2022-10-23T23:44:10.933Z,23.08
2022-10-23T23:46:38.390Z,26.42
2022-10-23T23:49:05.938Z,24.05
2022-10-23T23:51:33.492Z,27.25
2022-10-23T23:54:00.954Z,23.92
2022-10-23T23:56:28.391Z,25.90
2022-10-23T23:58:55.722Z,19.63
